PWSweather.com
Personal Weather Stations
Station Observations
SHAHALMS1
Eftra, Falkenberg, HA

EftraFalkenberg, HA

Lat: 56.85, Lon: 12.65

Elevation: 140

Station Type:

http://hem.passagen.se/risarp101

Latest ConditionsUpdated 11:00:01 AM GMT+1 Friday, Dec 15, 2017
Currently Today's Max Today's Min Today's Average
Temperature 35.6°F2.0°C 36.5°F2.5°C 33.6°F0.9°C 35.0°F1.7°C
Dew Point 34.3°F1.3°C 35.2°F1.8°C 32.1°F0.1°C 33.5°F0.8°C
Winds 0.6 mph WSW1.0 kmh WSW 11.3 mph W18.2 kmh W - 2.7 mph 4.3 kmh
Wind Gusts 4.7 mph7.6 kmh 24.7 mph39.8 kmh - -
Humidity 95% 96% 93% 94%
Pressure 29.12 in986.1 mb 29.12 in986.1 mb 28.88 in978.0 mb -
Precipitation - 0.28 in7.1 mm - -
Hour Temp Dew Point Humidity Winds Wind Gusts Pressure Precip Precip Rate Daily Precip Total
11:00 AM 35.6°F2.0°C 34.3°F1.3°C 95% 0.6 mph WSW1.0 kmh WSW 4.7 mph7.6 kmh 29.12 in986.1 mb 0.00 in0.0 mm 0.00 in0.0 mm 0.28 in7.1 mm
10:45 AM 35.4°F1.9°C 34.1°F1.2°C 95% Calm Calm -- 29.12 in986.1 mb 0.00 in0.0 mm 0.00 in0.0 mm 0.28 in7.1 mm
10:30 AM 35.2°F1.8°C 34.0°F1.1°C 95% Calm Calm -- 29.12 in986.1 mb 0.00 in0.0 mm 0.00 in0.0 mm 0.28 in7.1 mm
10:15 AM 34.9°F1.6°C 33.6°F0.9°C 95% Calm Calm -- 29.12 in986.1 mb 0.00 in0.0 mm 0.00 in0.0 mm 0.28 in7.1 mm
10:00 AM 34.5°F1.4°C 33.2°F0.7°C 95% Calm Calm -- 29.12 in986.1 mb 0.00 in0.0 mm 0.00 in0.0 mm 0.28 in7.1 mm
09:45 AM 34.2°F1.2°C 32.9°F0.5°C 95% Calm Calm -- 29.12 in986.1 mb 0.04 in1.0 mm 0.00 in0.0 mm 0.28 in7.1 mm
09:30 AM 34.0°F1.1°C 32.7°F0.4°C 95% Calm Calm -- 29.09 in985.1 mb 0.04 in1.0 mm 0.00 in0.0 mm 0.28 in7.1 mm
09:15 AM 33.8°F1.0°C 32.5°F0.3°C 95% Calm Calm -- 29.09 in985.1 mb 0.04 in1.0 mm 0.00 in0.0 mm 0.28 in7.1 mm
09:00 AM 33.8°F1.0°C 32.5°F0.3°C 95% Calm Calm -- 29.06 in984.1 mb 0.04 in1.0 mm 0.05 in1.3 mm 0.28 in7.1 mm
08:45 AM 33.6°F0.9°C 32.1°F0.1°C 94% Calm Calm -- 29.09 in985.1 mb 0.00 in0.0 mm 0.00 in0.0 mm 0.23 in5.8 mm
08:30 AM 33.6°F0.9°C 32.1°F0.1°C 94% Calm Calm -- 29.09 in985.1 mb 0.00 in0.0 mm 0.00 in0.0 mm 0.23 in5.8 mm
08:15 AM 33.8°F1.0°C 32.3°F0.2°C 94% 0.1 mph NW0.2 kmh NW 1.4 mph2.3 kmh 29.09 in985.1 mb 0.00 in0.0 mm 0.00 in0.0 mm 0.23 in5.8 mm
08:00 AM 33.8°F1.0°C 32.3°F0.2°C 94% Calm Calm -- 29.09 in985.1 mb 0.00 in0.0 mm 0.00 in0.0 mm 0.23 in5.8 mm
07:45 AM 34.0°F1.1°C 32.4°F0.2°C 94% 0.1 mph NW0.2 kmh NW 1.8 mph2.9 kmh 29.06 in984.1 mb 0.00 in0.0 mm 0.00 in0.0 mm 0.23 in5.8 mm
07:30 AM 34.0°F1.1°C 32.4°F0.2°C 94% 0.3 mph NW0.5 kmh NW 3.9 mph6.3 kmh 29.03 in983.1 mb 0.00 in0.0 mm 0.00 in0.0 mm 0.23 in5.8 mm
07:15 AM 34.0°F1.1°C 32.4°F0.2°C 94% Calm Calm -- 29.03 in983.1 mb 0.00 in0.0 mm 0.00 in0.0 mm 0.23 in5.8 mm
07:00 AM 34.0°F1.1°C 32.7°F0.4°C 95% Calm Calm -- 29.03 in983.1 mb 0.00 in0.0 mm 0.00 in0.0 mm 0.23 in5.8 mm
06:45 AM 33.8°F1.0°C 32.3°F0.2°C 94% Calm Calm -- 29.00 in982.1 mb 0.00 in0.0 mm 0.00 in0.0 mm 0.23 in5.8 mm
06:30 AM 33.8°F1.0°C 32.3°F0.2°C 94% Calm Calm 1.4 mph2.3 kmh 29.06 in984.1 mb 0.04 in1.0 mm 0.00 in0.0 mm 0.23 in5.8 mm
06:15 AM 33.8°F1.0°C 32.3°F0.2°C 94% Calm Calm -- 29.03 in983.1 mb 0.04 in1.0 mm 0.00 in0.0 mm 0.23 in5.8 mm
06:00 AM 33.8°F1.0°C 32.3°F0.2°C 94% 0.5 mph W0.8 kmh W 5.7 mph9.2 kmh 29.03 in983.1 mb 0.04 in1.0 mm 0.00 in0.0 mm 0.23 in5.8 mm
05:45 AM 34.0°F1.1°C 32.4°F0.2°C 94% 0.6 mph W1.0 kmh W 5.7 mph9.2 kmh 29.03 in983.1 mb 0.04 in1.0 mm 0.16 in4.1 mm 0.23 in5.8 mm
05:30 AM 34.2°F1.2°C 32.6°F0.3°C 94% 2.5 mph WNW4.0 kmh WNW 10.7 mph17.2 kmh 29.00 in982.1 mb 0.00 in0.0 mm 0.00 in0.0 mm 0.19 in4.8 mm
05:15 AM 34.5°F1.4°C 33.0°F0.6°C 94% 2.2 mph W3.5 kmh W 6.1 mph9.8 kmh 29.00 in982.1 mb 0.06 in1.5 mm 0.00 in0.0 mm 0.19 in4.8 mm
05:00 AM 34.7°F1.5°C 33.2°F0.7°C 94% 2.0 mph WNW3.2 kmh WNW 7.2 mph11.6 kmh 28.97 in981.0 mb 0.06 in1.5 mm 0.00 in0.0 mm 0.19 in4.8 mm
04:45 AM 35.2°F1.8°C 33.7°F0.9°C 94% 2.4 mph WNW3.9 kmh WNW 8.9 mph14.3 kmh 28.97 in981.0 mb 0.06 in1.5 mm 0.00 in0.0 mm 0.19 in4.8 mm
04:30 AM 35.6°F2.0°C 34.0°F1.1°C 94% 3.1 mph W5.0 kmh W 9.7 mph15.6 kmh 28.97 in981.0 mb 0.06 in1.5 mm 0.08 in2.0 mm 0.19 in4.8 mm
04:15 AM 35.6°F2.0°C 34.0°F1.1°C 94% 0.3 mph W0.5 kmh W 3.9 mph6.3 kmh 28.97 in981.0 mb 0.04 in1.0 mm 0.00 in0.0 mm 0.13 in3.3 mm
04:00 AM 36.0°F2.2°C 34.4°F1.3°C 94% 0.9 mph WNW1.4 kmh WNW 6.8 mph10.9 kmh 28.94 in980.0 mb 0.04 in1.0 mm 0.00 in0.0 mm 0.13 in3.3 mm
03:45 AM 36.1°F2.3°C 34.6°F1.4°C 94% 1.3 mph NW2.1 kmh NW 5.4 mph8.7 kmh 28.94 in980.0 mb 0.04 in1.0 mm 0.00 in0.0 mm 0.13 in3.3 mm
03:30 AM 36.5°F2.5°C 35.2°F1.8°C 95% 2.3 mph NW3.7 kmh NW 7.9 mph12.7 kmh 28.91 in979.0 mb 0.09 in2.3 mm 0.20 in5.1 mm 0.13 in3.3 mm
03:15 AM 36.3°F2.4°C 34.8°F1.6°C 94% Calm Calm -- 28.88 in978.0 mb 0.04 in1.0 mm 0.00 in0.0 mm 0.09 in2.3 mm
03:00 AM 36.3°F2.4°C 35.0°F1.7°C 95% 6.3 mph W10.1 kmh W 16.8 mph27.0 kmh 28.91 in979.0 mb 0.09 in2.3 mm 0.00 in0.0 mm 0.09 in2.3 mm
02:45 AM 36.1°F2.3°C 34.6°F1.4°C 94% 6.2 mph W10.0 kmh W 12.5 mph20.1 kmh 28.88 in978.0 mb 0.09 in2.3 mm 0.20 in5.1 mm 0.09 in2.3 mm
02:30 AM 36.0°F2.2°C 34.4°F1.3°C 94% 5.9 mph W9.5 kmh W 13.6 mph21.9 kmh 28.91 in979.0 mb 0.04 in1.0 mm 0.00 in0.0 mm 0.04 in1.0 mm
02:15 AM 36.1°F2.3°C 34.3°F1.3°C 93% 8.2 mph W13.2 kmh W 16.1 mph25.9 kmh 28.91 in979.0 mb 0.04 in1.0 mm 0.16 in4.1 mm 0.04 in1.0 mm
02:00 AM 36.5°F2.5°C 34.9°F1.6°C 94% 9.3 mph W15.0 kmh W 20.0 mph32.2 kmh 28.91 in979.0 mb 0.00 in0.0 mm 0.00 in0.0 mm 0.00 in0.0 mm
01:45 AM 36.5°F2.5°C 34.9°F1.6°C 94% 11.3 mph W18.2 kmh W 24.7 mph39.8 kmh 28.88 in978.0 mb 0.00 in0.0 mm 0.00 in0.0 mm 0.00 in0.0 mm
01:30 AM 36.5°F2.5°C 35.2°F1.8°C 95% 10.2 mph W16.4 kmh W 17.5 mph28.2 kmh 28.91 in979.0 mb 0.00 in0.0 mm 0.00 in0.0 mm 0.00 in0.0 mm
01:15 AM 36.3°F2.4°C 35.0°F1.7°C 95% 8.5 mph W13.7 kmh W 19.7 mph31.7 kmh 28.91 in979.0 mb 0.00 in0.0 mm 0.00 in0.0 mm 0.00 in0.0 mm
01:00 AM 36.1°F2.3°C 34.8°F1.6°C 95% 7.4 mph W11.9 kmh W 13.6 mph21.9 kmh 28.91 in979.0 mb 0.00 in0.0 mm 0.00 in0.0 mm 0.00 in0.0 mm
12:45 AM 35.8°F2.1°C 34.8°F1.6°C 96% 7.8 mph W12.6 kmh W 15.7 mph25.3 kmh 28.91 in979.0 mb 0.00 in0.0 mm 0.00 in0.0 mm 0.00 in0.0 mm
12:30 AM 35.6°F2.0°C 34.6°F1.4°C 96% 9.0 mph W14.5 kmh W 22.5 mph36.2 kmh 28.91 in979.0 mb 0.00 in0.0 mm 0.00 in0.0 mm 0.00 in0.0 mm
12:15 AM 35.1°F1.7°C 34.0°F1.1°C 96% 8.4 mph W13.5 kmh W 17.9 mph28.8 kmh 28.91 in979.0 mb 0.00 in0.0 mm 0.00 in0.0 mm 0.00 in0.0 mm
12:00 AM 34.2°F1.2°C 32.9°F0.5°C 95% 4.0 mph W6.4 kmh W 8.6 mph13.8 kmh 28.91 in979.0 mb 0.00 in0.0 mm 0.00 in0.0 mm 0.00 in0.0 mm